Archival Weather

Chicago O'Hare International

Chicago, Illinois (KORD)

Report from: Wednesday, July 19, 2023 12:51 PM CDT
Current time: Monday, July 22, 2024 6:44 AM CDT

Current weather – Weather history – Daily summaries
Weather forecast

Temperature28.3°C (82.9°F)
Heat index28.6°C (83.4°F)
Dew point15.0°C (59.0°F)
Winds 4 kts (2.1 m/s, 4.6 mph) East-Southeast (120°)
Visibility10 mi. (16.1 km)
Clouds Few clouds 5,500 ft. (1,676 m)
Few clouds 15,000 ft. (4,572 m)
Few clouds 25,000 ft. (7,620 m)
Altimeter30.04 in.Hg (1017 mB)
Relative humidity44 %
Density altitude1,644 ft. (501 m)
Sea-level pressure101.7 kPa (1017 mB, 30.03 in.Hg)
Max temp last 6 hours28.3°C (82.9°F)
Min temp last 6 hours20.0°C (68.0°F)
Remarks Automated weather observing station with precipitation discriminator
Pressure falling more quickly
Flight conditions Visual Meteorological Conditions
Raw dataKORD 191751Z 12004KT 10SM FEW055 FEW150 FEW250 28/15 A3004 RMK AO2 SLP169 T02830150 10283 20200 58007
An error has occurred. This application may no longer respond until reloaded. Reload 🗙